Tuscumbia, Missouri
Current Conditions -  °F | °C
As of 5:55 PM on Sunday 23 Nov 2014 (Local Time) from KAIZ Reporting Station
Overcast Overcast  
Wind Chill: 54°   Ceiling: 200
Heat Index: 54°   Visibility: 0mi
Dew Point: 52°   Wind: 0mph
Humidity: 94%   Direction: NA
Pressure: 29.29"   Gusts: NA
Location:  38.23°N, 92.46°W
Report Text: KAIZ 232355Z AUTO 00000KT M1/4SM OVC002 12/11 A2929 RMK AO1 60001 10130 20120 401300110 57020
Loading
Personal Weather Stations






























Interactive Weather Map New forecast layout! Learn more

10-Day Weather Forecast

Advertisements
Track Severe Weather on mobile